Maynard, MA

5:35 PM EDT on March 26, 2017 (GMT -0400)
Reo Road Playground - Maynard, Ma. | | Change Station
Active Advisory: Special Statement

Elev 226 ft 42.44 °N, 71.46 °W | Updated 6 seconds ago

Overcast
Overcast
37.6 °F
Feels Like 38 °F
N
0.9
Wind Variable Wind from ENE
Gusts 3.0 mph

Today
High -- | Low -- °F
--% Chance of Precip.
Yesterday
High -- | Low -- °F
Precip. -- in
Pressure 30.53 in
Visibility 10.0 miles
Clouds Overcast 5000 ft
Windchill 38 °F
Dew Point 29 °F
Humidity 70%
Rainfall 0.00 in
Snow Depth Not available.
6:38 AM 7:05 PM
Waning Crescent, 2% visible
METAR KBED 262056Z 10010KT 10SM OVC050 03/M04 A3048 RMK AO2 SLP337 60000 T00281044 58012
Pressure 30.53 in
Visibility 10.0 miles
Clouds Overcast 5000 ft
Windchill 38 °F
Dew Point 29 °F
Humidity 70%
Rainfall 0.00 in
Snow Depth Not available.
6:38 AM 7:05 PM
Waning Crescent, 2% visible
METAR KBED 262056Z 10010KT 10SM OVC050 03/M04 A3048 RMK AO2 SLP337 60000 T00281044 58012

Get Your Daily Forecast Email!

Thanks for signing up!

Be on the lookout for a verification email in your inbox.

You'll start receiving severe weather alerts in your inbox..

×

10-Day Weather Forecast

Almanac

Astronomy

Mar. 26, 2017 Rise Set
Actual Time
Civil Twilight
Nautical Twilight
Astronomical Twilight
Moon
Length of Visible Light
Length of Day
Tomorrow will be .
, % of the Moon is Illuminated

Today's Extremes

State Highs State Lows

Community

WunderPhotos

Upload Photos

1,962,540 photos uploaded!

WunderBlog® & News

Nearby

Air Quality

  Air Quality AQ Index Pollutant
Not available.

Snow Depth

Station Depth Elevation

Earthquake Activity

City Distance Mag. Time & Date
Minimum magnitude displayed is 2.5.

Earthquake Activity

City Distance Mag. Time & Date
Minimum magnitude displayed is 2.5.

Coastal Water Temperatures

Place Temperature

Stations

Nearby Weather Stations

Station Location Temp. Windchill Dew Point Humidity Wind Precip. Elev Updated Type
                   

Watches & Warnings

Special Statement
Issued: 3:44 PM EDT Mar. 26, 2017 – National Weather Service

... Freezing rain forecast during the overnight hours...

Temperatures across northern Connecticut, the Connecticut River
valley of Massachusetts, and eastern and northeastern interior
Massachusetts will fall towards and hover around freezing overnight.

While freezing rain is forecast, with temperatures hovering around
freezing, expect any icing to be spotty. Subsequently confidence is
low with respect to ice accumulation on untreated surfaces. If any,
feel it will be isolated and more confined to the higher elevations
such as the Tolland hills of northern Connecticut.

Temperatures should warm during the early morning hours Monday thus
diminishing the freezing rain threat.


Sipprell